EGXWEGWU

Guest
Details From EGXW - RAF Waddington
To EGWU - RAF Northolt
Flight Number -
Tags generated
Created
Modified
Stats Distance 97 nm / 180 km
Max Altitude 7,400 ft / 2,256 m
Waypoints 3
Social Downloads 1
Likes 0
Share VATSIM

Download

Looking for another format? Having issues loading an existing format? Contact us
Advertisement - Login to hide

Notes

Basic altitude profile: - Ascent Rate: 2500ft/min - Ascent Speed: 250kts - Cruise Altitude: 35000ft - Cruise Speed: 420kts - Descent Rate: 1500ft/min - Descent Speed: 250kts Options: - Use NATs: yes - Use PACOTS: yes - Use low airways: yes - Use high airways: no

Route

EGXW BPK26 EGWU

ID Type Via Altitude Latitude Longitude Leg Dist Tot Dist Heading (true) Name
O EGXW APT - 0 ft / 0 m 53.16611˚ -0.52391˚ - 0 nm - RAF Waddington
BPK26 FIX - 7,400 ft / 2,256 m 52.12750˚ -0.46861˚ 62 nm 62 nm 178° / 178° -
O EGWU APT - 0 ft / 0 m 51.55270˚ -0.41959˚ 34 nm 96 nm 177° / 177° RAF Northolt

Altitude Profile

Advertisement - Login to hide

EGXW

Details ICAO EGXW (WTN)
Name RAF Waddington
Region United Kingdom
Timezone Europe/London (UTC+1.0)
Stats Elevation 231 ft / 70 m (AMSL)
Location 53.166112° -0.523906°
Runways 1
Magnetic Variation 0.714° W

METAR

EGXW 210450Z 06001KT 0300 FG BKN000 06/06 Q1019 RED

Decode

TAF

TAF TAF EGXW 210130Z 2103/2121 11007KT 5000 BR NSC PROB40 2103/2107 0500 FG OVC000 BECMG 2107/2109 9999 NSW

Decode

Departure Runways

ID Width Length Bearing (true) Bearing (mag) Surface Threshold Offset Overrun Length
02 200 ft / 61 m 8,988 ft / 2,740 m 21.63° 22.34° Asphalt 0 ft / 0 m 600 ft / 183 m
20 200 ft / 61 m 8,988 ft / 2,740 m 201.64° 202.35° Asphalt 0 ft / 0 m 0 ft / 0 m

EGWU

Details ICAO EGWU (NHT)
Name RAF Northolt
Region United Kingdom
Timezone Europe/London (UTC+1.0)
Stats Elevation 124 ft / 38 m (AMSL)
Location 51.552696° -0.419593°
Runways 1
Magnetic Variation 0.491° W

METAR

EGWU 210450Z AUTO 01003KT 7000 // FEW080/// 09/07 Q1017

Decode

TAF

TAF EGWU 202322Z 2100/2118 CNL

Decode

Destination Runways

ID Width Length Bearing (true) Bearing (mag) Surface Threshold Offset Overrun Length
07 151 ft / 46 m 5,531 ft / 1,686 m 69.62° 70.11° Asphalt 302 ft / 92 m 0 ft / 0 m
25 151 ft / 46 m 5,531 ft / 1,686 m 249.64° 250.13° Asphalt 0 ft / 0 m 0 ft / 0 m

Approach Navaids

Runway Type Ident Frequency Range Bearing (true) Bearing (mag) Slope Elevation
25 Localiser INHT 108.55 MHz 18 nm / 33 km 249.76° 250.25° - 124 ft / 38 m (AMSL)
25 Glidescope INHT 108.55 MHz 10 nm / 19 km 249.63° 250.12° 3.50° 124 ft / 38 m (AMSL)
25 DME INHT 108.55 MHz 18 nm / 33 km - - - 124 ft / 38 m (AMSL)